sensor_id;sensor_type;location;lat;lon;timestamp;temperature;humidity
30999;DHT22;20549;50.042;8.968;2023-08-06T00:01:02;18.60;97.70
30999;DHT22;20549;50.042;8.968;2023-08-06T00:03:29;18.60;97.60
30999;DHT22;20549;50.042;8.968;2023-08-06T00:05:55;18.60;97.80
30999;DHT22;20549;50.042;8.968;2023-08-06T00:08:22;18.60;98.10
30999;DHT22;20549;50.042;8.968;2023-08-06T00:10:48;18.60;98.20
30999;DHT22;20549;50.042;8.968;2023-08-06T00:13:15;18.60;98.20
30999;DHT22;20549;50.042;8.968;2023-08-06T00:15:41;18.60;98.20
30999;DHT22;20549;50.042;8.968;2023-08-06T00:18:08;18.60;98.30
30999;DHT22;20549;50.042;8.968;2023-08-06T00:20:35;18.60;98.40
30999;DHT22;20549;50.042;8.968;2023-08-06T00:23:01;18.60;98.40
30999;DHT22;20549;50.042;8.968;2023-08-06T00:25:28;18.60;98.60
30999;DHT22;20549;50.042;8.968;2023-08-06T00:27:54;18.60;98.70
30999;DHT22;20549;50.042;8.968;2023-08-06T00:30:21;18.60;98.80
30999;DHT22;20549;50.042;8.968;2023-08-06T00:32:48;18.60;99.00
30999;DHT22;20549;50.042;8.968;2023-08-06T00:35:14;18.60;99.10
30999;DHT22;20549;50.042;8.968;2023-08-06T00:37:41;18.60;99.20
30999;DHT22;20549;50.042;8.968;2023-08-06T00:40:07;18.60;99.20
30999;DHT22;20549;50.042;8.968;2023-08-06T00:42:34;18.60;99.20
30999;DHT22;20549;50.042;8.968;2023-08-06T00:45:01;18.60;99.30
30999;DHT22;20549;50.042;8.968;2023-08-06T00:47:27;18.60;99.40
30999;DHT22;20549;50.042;8.968;2023-08-06T00:49:54;18.50;99.50
30999;DHT22;20549;50.042;8.968;2023-08-06T00:52:20;18.50;99.50
30999;DHT22;20549;50.042;8.968;2023-08-06T00:54:47;18.50;99.50
30999;DHT22;20549;50.042;8.968;2023-08-06T00:57:14;18.50;99.60
30999;DHT22;20549;50.042;8.968;2023-08-06T00:59:40;18.50;99.60
30999;DHT22;20549;50.042;8.968;2023-08-06T01:02:07;18.50;99.60
30999;DHT22;20549;50.042;8.968;2023-08-06T01:04:33;18.50;99.60
30999;DHT22;20549;50.042;8.968;2023-08-06T01:07:25;18.50;99.80
30999;DHT22;20549;50.042;8.968;2023-08-06T01:09:58;18.50;99.90
30999;DHT22;20549;50.042;8.968;2023-08-06T01:12:45;18.40;99.80
30999;DHT22;20549;50.042;8.968;2023-08-06T01:17:37;18.40;99.90
30999;DHT22;20549;50.042;8.968;2023-08-06T01:20:04;18.40;99.90
30999;DHT22;20549;50.042;8.968;2023-08-06T01:22:30;18.40;99.90
30999;DHT22;20549;50.042;8.968;2023-08-06T01:24:57;18.40;99.90
30999;DHT22;20549;50.042;8.968;2023-08-06T01:27:26;18.30;99.90
30999;DHT22;20549;50.042;8.968;2023-08-06T01:30:03;18.40;99.90
30999;DHT22;20549;50.042;8.968;2023-08-06T01:32:29;18.30;99.90
30999;DHT22;20549;50.042;8.968;2023-08-06T01:34:55;18.40;99.90
30999;DHT22;20549;50.042;8.968;2023-08-06T01:37:22;18.30;99.90
30999;DHT22;20549;50.042;8.968;2023-08-06T01:39:48;18.30;99.90
30999;DHT22;20549;50.042;8.968;2023-08-06T01:42:15;18.30;99.90
30999;DHT22;20549;50.042;8.968;2023-08-06T01:44:41;18.30;99.90
30999;DHT22;20549;50.042;8.968;2023-08-06T01:47:08;18.30;99.90
30999;DHT22;20549;50.042;8.968;2023-08-06T01:49:35;18.30;99.90
30999;DHT22;20549;50.042;8.968;2023-08-06T01:52:01;18.30;99.90
30999;DHT22;20549;50.042;8.968;2023-08-06T01:54:28;18.30;99.90
30999;DHT22;20549;50.042;8.968;2023-08-06T01:56:54;18.30;99.90
30999;DHT22;20549;50.042;8.968;2023-08-06T01:59:21;18.30;99.90
30999;DHT22;20549;50.042;8.968;2023-08-06T02:01:47;18.30;99.90
30999;DHT22;20549;50.042;8.968;2023-08-06T02:04:14;18.30;99.90
30999;DHT22;20549;50.042;8.968;2023-08-06T02:06:41;18.30;99.90
30999;DHT22;20549;50.042;8.968;2023-08-06T02:09:07;18.30;99.90
30999;DHT22;20549;50.042;8.968;2023-08-06T02:11:34;18.30;99.90
30999;DHT22;20549;50.042;8.968;2023-08-06T02:14:00;18.30;99.90
30999;DHT22;20549;50.042;8.968;2023-08-06T02:16:27;18.20;99.90
30999;DHT22;20549;50.042;8.968;2023-08-06T02:18:54;18.20;99.90
30999;DHT22;20549;50.042;8.968;2023-08-06T02:21:20;18.20;99.90
30999;DHT22;20549;50.042;8.968;2023-08-06T02:23:47;18.20;99.90
30999;DHT22;20549;50.042;8.968;2023-08-06T02:26:13;18.20;99.90
30999;DHT22;20549;50.042;8.968;2023-08-06T02:28:40;18.20;99.90
30999;DHT22;20549;50.042;8.968;2023-08-06T02:31:07;18.20;99.90
30999;DHT22;20549;50.042;8.968;2023-08-06T02:33:33;18.20;99.90
30999;DHT22;20549;50.042;8.968;2023-08-06T02:36:00;18.20;99.90
30999;DHT22;20549;50.042;8.968;2023-08-06T02:38:26;18.20;99.90
30999;DHT22;20549;50.042;8.968;2023-08-06T02:40:53;18.20;99.90
30999;DHT22;20549;50.042;8.968;2023-08-06T02:43:19;18.20;99.90
30999;DHT22;20549;50.042;8.968;2023-08-06T02:45:46;18.20;99.90
30999;DHT22;20549;50.042;8.968;2023-08-06T02:48:13;18.20;99.90
30999;DHT22;20549;50.042;8.968;2023-08-06T02:50:39;18.20;99.90
30999;DHT22;20549;50.042;8.968;2023-08-06T02:53:09;18.20;99.90
30999;DHT22;20549;50.042;8.968;2023-08-06T02:55:33;18.20;99.90
30999;DHT22;20549;50.042;8.968;2023-08-06T02:58:03;18.20;99.90
30999;DHT22;20549;50.042;8.968;2023-08-06T03:00:26;18.20;99.90
30999;DHT22;20549;50.042;8.968;2023-08-06T03:02:52;18.20;99.90
30999;DHT22;20549;50.042;8.968;2023-08-06T03:05:19;18.20;99.90
30999;DHT22;20549;50.042;8.968;2023-08-06T03:07:45;18.20;99.90
30999;DHT22;20549;50.042;8.968;2023-08-06T03:10:12;18.20;99.90
30999;DHT22;20549;50.042;8.968;2023-08-06T03:12:39;18.10;99.90
30999;DHT22;20549;50.042;8.968;2023-08-06T03:15:05;18.10;99.90
30999;DHT22;20549;50.042;8.968;2023-08-06T03:17:32;18.10;99.90
30999;DHT22;20549;50.042;8.968;2023-08-06T03:19:58;18.00;99.90
30999;DHT22;20549;50.042;8.968;2023-08-06T03:22:25;18.00;99.90
30999;DHT22;20549;50.042;8.968;2023-08-06T03:24:52;18.10;99.90
30999;DHT22;20549;50.042;8.968;2023-08-06T03:27:18;18.00;99.90
30999;DHT22;20549;50.042;8.968;2023-08-06T03:29:45;18.00;99.90
30999;DHT22;20549;50.042;8.968;2023-08-06T03:32:11;18.00;99.90
30999;DHT22;20549;50.042;8.968;2023-08-06T03:34:38;18.00;99.90
30999;DHT22;20549;50.042;8.968;2023-08-06T03:37:05;17.90;99.90
30999;DHT22;20549;50.042;8.968;2023-08-06T03:39:31;17.90;99.90
30999;DHT22;20549;50.042;8.968;2023-08-06T03:41:58;17.90;99.90
30999;DHT22;20549;50.042;8.968;2023-08-06T03:44:24;17.80;99.90
30999;DHT22;20549;50.042;8.968;2023-08-06T03:46:51;17.80;99.90
30999;DHT22;20549;50.042;8.968;2023-08-06T03:49:18;17.70;99.90
30999;DHT22;20549;50.042;8.968;2023-08-06T03:51:44;17.70;99.90
30999;DHT22;20549;50.042;8.968;2023-08-06T03:54:11;17.60;99.90
30999;DHT22;20549;50.042;8.968;2023-08-06T03:56:37;17.60;99.90
30999;DHT22;20549;50.042;8.968;2023-08-06T03:59:04;17.50;99.90
30999;DHT22;20549;50.042;8.968;2023-08-06T04:01:30;17.50;99.90
30999;DHT22;20549;50.042;8.968;2023-08-06T04:03:57;17.40;99.90
30999;DHT22;20549;50.042;8.968;2023-08-06T04:06:24;17.40;99.90
30999;DHT22;20549;50.042;8.968;2023-08-06T04:08:50;17.30;99.90
30999;DHT22;20549;50.042;8.968;2023-08-06T04:11:17;17.30;99.90
30999;DHT22;20549;50.042;8.968;2023-08-06T04:13:43;17.20;99.90
30999;DHT22;20549;50.042;8.968;2023-08-06T04:16:10;17.20;99.90
30999;DHT22;20549;50.042;8.968;2023-08-06T04:18:37;17.20;99.90
30999;DHT22;20549;50.042;8.968;2023-08-06T04:21:03;17.10;99.90
30999;DHT22;20549;50.042;8.968;2023-08-06T04:23:30;17.10;99.90
30999;DHT22;20549;50.042;8.968;2023-08-06T04:25:57;17.00;99.90
30999;DHT22;20549;50.042;8.968;2023-08-06T04:28:23;17.00;99.90
30999;DHT22;20549;50.042;8.968;2023-08-06T04:30:50;17.00;99.90
30999;DHT22;20549;50.042;8.968;2023-08-06T04:33:16;17.00;99.90
30999;DHT22;20549;50.042;8.968;2023-08-06T04:35:43;17.00;99.90
30999;DHT22;20549;50.042;8.968;2023-08-06T04:38:09;17.00;99.90
30999;DHT22;20549;50.042;8.968;2023-08-06T04:40:36;17.10;99.90
30999;DHT22;20549;50.042;8.968;2023-08-06T04:43:03;17.10;99.90
30999;DHT22;20549;50.042;8.968;2023-08-06T04:45:29;17.20;99.90
30999;DHT22;20549;50.042;8.968;2023-08-06T04:47:56;17.30;99.90
30999;DHT22;20549;50.042;8.968;2023-08-06T04:50:22;17.40;99.90
30999;DHT22;20549;50.042;8.968;2023-08-06T04:52:49;17.50;99.90
30999;DHT22;20549;50.042;8.968;2023-08-06T04:55:15;17.60;99.90
30999;DHT22;20549;50.042;8.968;2023-08-06T04:57:42;17.70;99.90
30999;DHT22;20549;50.042;8.968;2023-08-06T05:00:09;17.80;99.90
30999;DHT22;20549;50.042;8.968;2023-08-06T05:02:35;17.90;99.90
30999;DHT22;20549;50.042;8.968;2023-08-06T05:05:02;17.90;99.90
30999;DHT22;20549;50.042;8.968;2023-08-06T05:07:28;17.90;99.90
30999;DHT22;20549;50.042;8.968;2023-08-06T05:09:55;17.90;99.90
30999;DHT22;20549;50.042;8.968;2023-08-06T05:12:22;17.90;99.90
30999;DHT22;20549;50.042;8.968;2023-08-06T05:14:48;17.90;99.90
30999;DHT22;20549;50.042;8.968;2023-08-06T05:17:15;17.90;99.90
30999;DHT22;20549;50.042;8.968;2023-08-06T05:19:41;17.90;99.90
30999;DHT22;20549;50.042;8.968;2023-08-06T05:22:08;17.90;99.90
30999;DHT22;20549;50.042;8.968;2023-08-06T05:24:35;17.90;99.90
30999;DHT22;20549;50.042;8.968;2023-08-06T05:27:01;17.90;99.90
30999;DHT22;20549;50.042;8.968;2023-08-06T05:29:28;17.90;99.90
30999;DHT22;20549;50.042;8.968;2023-08-06T05:31:54;17.90;99.90
30999;DHT22;20549;50.042;8.968;2023-08-06T05:34:21;17.90;99.90
30999;DHT22;20549;50.042;8.968;2023-08-06T05:36:47;17.90;99.90
30999;DHT22;20549;50.042;8.968;2023-08-06T05:39:14;17.90;99.90
30999;DHT22;20549;50.042;8.968;2023-08-06T05:41:41;17.90;99.90
30999;DHT22;20549;50.042;8.968;2023-08-06T05:44:07;18.00;99.90
30999;DHT22;20549;50.042;8.968;2023-08-06T05:46:34;18.00;99.90
30999;DHT22;20549;50.042;8.968;2023-08-06T05:49:00;18.00;99.90
30999;DHT22;20549;50.042;8.968;2023-08-06T05:51:27;18.00;99.90
30999;DHT22;20549;50.042;8.968;2023-08-06T05:53:54;18.10;99.90
30999;DHT22;20549;50.042;8.968;2023-08-06T05:56:20;18.10;99.90
30999;DHT22;20549;50.042;8.968;2023-08-06T05:58:47;18.20;99.90
30999;DHT22;20549;50.042;8.968;2023-08-06T06:01:13;18.20;99.90
30999;DHT22;20549;50.042;8.968;2023-08-06T06:03:40;18.20;99.90
30999;DHT22;20549;50.042;8.968;2023-08-06T06:06:07;18.30;99.90
30999;DHT22;20549;50.042;8.968;2023-08-06T06:08:33;18.30;99.90
30999;DHT22;20549;50.042;8.968;2023-08-06T06:11:00;18.30;99.90
30999;DHT22;20549;50.042;8.968;2023-08-06T06:13:26;18.30;99.90
30999;DHT22;20549;50.042;8.968;2023-08-06T06:15:56;18.40;99.90
30999;DHT22;20549;50.042;8.968;2023-08-06T06:18:22;18.40;99.90
30999;DHT22;20549;50.042;8.968;2023-08-06T06:20:49;18.40;99.90
30999;DHT22;20549;50.042;8.968;2023-08-06T06:23:16;18.50;99.90
30999;DHT22;20549;50.042;8.968;2023-08-06T06:25:49;18.50;99.90
30999;DHT22;20549;50.042;8.968;2023-08-06T06:28:15;18.50;99.90
30999;DHT22;20549;50.042;8.968;2023-08-06T06:30:42;18.60;99.90
30999;DHT22;20549;50.042;8.968;2023-08-06T06:33:08;18.60;99.90
30999;DHT22;20549;50.042;8.968;2023-08-06T06:35:35;18.60;99.90
30999;DHT22;20549;50.042;8.968;2023-08-06T06:38:01;18.60;99.90
30999;DHT22;20549;50.042;8.968;2023-08-06T06:40:28;18.70;99.90
30999;DHT22;20549;50.042;8.968;2023-08-06T06:42:54;18.70;99.90
30999;DHT22;20549;50.042;8.968;2023-08-06T06:45:21;18.80;99.90
30999;DHT22;20549;50.042;8.968;2023-08-06T06:47:48;19.00;99.90
30999;DHT22;20549;50.042;8.968;2023-08-06T06:50:14;19.10;99.90
30999;DHT22;20549;50.042;8.968;2023-08-06T06:52:41;19.30;99.90
30999;DHT22;20549;50.042;8.968;2023-08-06T06:55:07;19.50;99.90
30999;DHT22;20549;50.042;8.968;2023-08-06T06:57:34;19.80;99.90
30999;DHT22;20549;50.042;8.968;2023-08-06T07:00:01;20.00;99.90
30999;DHT22;20549;50.042;8.968;2023-08-06T07:02:27;20.30;99.90
30999;DHT22;20549;50.042;8.968;2023-08-06T07:04:54;20.50;99.90
30999;DHT22;20549;50.042;8.968;2023-08-06T07:07:20;20.80;99.90
30999;DHT22;20549;50.042;8.968;2023-08-06T07:09:47;21.00;99.90
30999;DHT22;20549;50.042;8.968;2023-08-06T07:12:14;21.10;99.90
30999;DHT22;20549;50.042;8.968;2023-08-06T07:14:40;21.20;99.90
30999;DHT22;20549;50.042;8.968;2023-08-06T07:17:07;21.30;99.90
30999;DHT22;20549;50.042;8.968;2023-08-06T07:19:33;21.30;99.90
30999;DHT22;20549;50.042;8.968;2023-08-06T07:22:00;21.30;99.90
30999;DHT22;20549;50.042;8.968;2023-08-06T07:24:26;21.30;99.90
30999;DHT22;20549;50.042;8.968;2023-08-06T07:26:53;21.20;99.90
30999;DHT22;20549;50.042;8.968;2023-08-06T07:29:20;21.20;99.90
30999;DHT22;20549;50.042;8.968;2023-08-06T07:31:46;21.20;99.90
30999;DHT22;20549;50.042;8.968;2023-08-06T07:34:13;21.30;99.90
30999;DHT22;20549;50.042;8.968;2023-08-06T07:36:39;21.30;99.90
30999;DHT22;20549;50.042;8.968;2023-08-06T07:39:06;21.30;99.90
30999;DHT22;20549;50.042;8.968;2023-08-06T07:41:33;21.30;99.90
30999;DHT22;20549;50.042;8.968;2023-08-06T07:43:59;21.30;99.90
30999;DHT22;20549;50.042;8.968;2023-08-06T07:46:26;21.30;99.90
30999;DHT22;20549;50.042;8.968;2023-08-06T07:48:52;21.30;99.90
30999;DHT22;20549;50.042;8.968;2023-08-06T07:51:19;21.40;99.90
30999;DHT22;20549;50.042;8.968;2023-08-06T07:53:46;21.30;99.90
30999;DHT22;20549;50.042;8.968;2023-08-06T07:56:12;21.30;99.70
30999;DHT22;20549;50.042;8.968;2023-08-06T07:58:39;21.30;99.40
30999;DHT22;20549;50.042;8.968;2023-08-06T08:01:06;21.30;99.50
30999;DHT22;20549;50.042;8.968;2023-08-06T08:03:32;21.20;99.80
30999;DHT22;20549;50.042;8.968;2023-08-06T08:05:58;21.20;99.90
30999;DHT22;20549;50.042;8.968;2023-08-06T08:08:25;21.20;99.60
30999;DHT22;20549;50.042;8.968;2023-08-06T08:10:52;21.20;99.70
30999;DHT22;20549;50.042;8.968;2023-08-06T08:13:18;21.20;99.20
30999;DHT22;20549;50.042;8.968;2023-08-06T08:15:45;21.20;99.10
30999;DHT22;20549;50.042;8.968;2023-08-06T08:18:11;21.20;99.50
30999;DHT22;20549;50.042;8.968;2023-08-06T08:20:41;21.20;99.40
30999;DHT22;20549;50.042;8.968;2023-08-06T08:23:07;21.20;99.30
30999;DHT22;20549;50.042;8.968;2023-08-06T08:25:34;21.20;99.30
30999;DHT22;20549;50.042;8.968;2023-08-06T08:28:01;21.20;99.30
30999;DHT22;20549;50.042;8.968;2023-08-06T08:30:27;21.30;99.60
30999;DHT22;20549;50.042;8.968;2023-08-06T08:32:54;21.30;99.70
30999;DHT22;20549;50.042;8.968;2023-08-06T08:35:20;21.30;99.40
30999;DHT22;20549;50.042;8.968;2023-08-06T08:37:47;21.30;99.30
30999;DHT22;20549;50.042;8.968;2023-08-06T08:40:14;21.40;98.80
30999;DHT22;20549;50.042;8.968;2023-08-06T08:42:40;21.40;98.70
30999;DHT22;20549;50.042;8.968;2023-08-06T08:45:12;21.40;99.20
30999;DHT22;20549;50.042;8.968;2023-08-06T08:47:33;21.40;99.00
30999;DHT22;20549;50.042;8.968;2023-08-06T08:50:00;21.40;99.40
30999;DHT22;20549;50.042;8.968;2023-08-06T08:52:26;21.50;99.60
30999;DHT22;20549;50.042;8.968;2023-08-06T08:54:53;21.50;99.80
30999;DHT22;20549;50.042;8.968;2023-08-06T08:57:20;21.70;99.90
30999;DHT22;20549;50.042;8.968;2023-08-06T08:59:46;21.80;99.90
30999;DHT22;20549;50.042;8.968;2023-08-06T09:02:13;22.10;99.90
30999;DHT22;20549;50.042;8.968;2023-08-06T09:04:40;22.40;99.90
30999;DHT22;20549;50.042;8.968;2023-08-06T09:07:06;22.90;99.90
30999;DHT22;20549;50.042;8.968;2023-08-06T09:09:33;23.30;99.90
30999;DHT22;20549;50.042;8.968;2023-08-06T09:12:03;23.80;99.90
30999;DHT22;20549;50.042;8.968;2023-08-06T09:14:29;24.40;99.90
30999;DHT22;20549;50.042;8.968;2023-08-06T09:16:56;25.00;99.90
30999;DHT22;20549;50.042;8.968;2023-08-06T09:19:22;25.60;98.80
30999;DHT22;20549;50.042;8.968;2023-08-06T09:21:50;26.20;96.30
30999;DHT22;20549;50.042;8.968;2023-08-06T09:24:15;26.80;93.70
30999;DHT22;20549;50.042;8.968;2023-08-06T09:26:42;27.40;91.10
30999;DHT22;20549;50.042;8.968;2023-08-06T09:29:09;27.90;91.20
30999;DHT22;20549;50.042;8.968;2023-08-06T09:31:48;28.50;88.80
30999;DHT22;20549;50.042;8.968;2023-08-06T09:34:17;29.10;84.50
30999;DHT22;20549;50.042;8.968;2023-08-06T09:36:48;29.70;80.80
30999;DHT22;20549;50.042;8.968;2023-08-06T09:39:13;30.20;77.80
30999;DHT22;20549;50.042;8.968;2023-08-06T09:41:40;30.60;76.10
30999;DHT22;20549;50.042;8.968;2023-08-06T09:44:13;31.10;73.30
30999;DHT22;20549;50.042;8.968;2023-08-06T09:46:33;31.50;70.80
30999;DHT22;20549;50.042;8.968;2023-08-06T09:48:59;31.80;68.40
30999;DHT22;20549;50.042;8.968;2023-08-06T09:51:26;32.10;67.70
30999;DHT22;20549;50.042;8.968;2023-08-06T09:53:52;32.40;67.00
30999;DHT22;20549;50.042;8.968;2023-08-06T09:56:19;32.60;65.40
30999;DHT22;20549;50.042;8.968;2023-08-06T09:58:46;32.80;63.30
30999;DHT22;20549;50.042;8.968;2023-08-06T10:01:12;32.70;60.80
30999;DHT22;20549;50.042;8.968;2023-08-06T10:03:39;32.70;59.50
30999;DHT22;20549;50.042;8.968;2023-08-06T10:06:05;32.40;58.80
30999;DHT22;20549;50.042;8.968;2023-08-06T10:08:32;32.10;58.50
30999;DHT22;20549;50.042;8.968;2023-08-06T10:10:59;31.80;58.40
30999;DHT22;20549;50.042;8.968;2023-08-06T10:13:25;31.50;58.00
30999;DHT22;20549;50.042;8.968;2023-08-06T10:15:52;31.20;58.10
30999;DHT22;20549;50.042;8.968;2023-08-06T10:18:18;30.90;58.40
30999;DHT22;20549;50.042;8.968;2023-08-06T10:20:45;30.70;58.40
30999;DHT22;20549;50.042;8.968;2023-08-06T10:23:12;30.40;58.40
30999;DHT22;20549;50.042;8.968;2023-08-06T10:25:41;30.20;58.70
30999;DHT22;20549;50.042;8.968;2023-08-06T10:28:10;30.10;59.10
30999;DHT22;20549;50.042;8.968;2023-08-06T10:30:46;30.00;59.40
30999;DHT22;20549;50.042;8.968;2023-08-06T10:33:12;29.80;60.00
30999;DHT22;20549;50.042;8.968;2023-08-06T10:35:42;29.60;59.30
30999;DHT22;20549;50.042;8.968;2023-08-06T10:38:20;29.10;58.40
30999;DHT22;20549;50.042;8.968;2023-08-06T10:43:25;27.70;58.50
30999;DHT22;20549;50.042;8.968;2023-08-06T10:45:51;26.90;59.10
30999;DHT22;20549;50.042;8.968;2023-08-06T10:48:36;26.10;59.80
30999;DHT22;20549;50.042;8.968;2023-08-06T10:51:02;25.40;60.90
30999;DHT22;20549;50.042;8.968;2023-08-06T10:53:29;24.80;62.50
30999;DHT22;20549;50.042;8.968;2023-08-06T10:55:55;24.30;63.70
30999;DHT22;20549;50.042;8.968;2023-08-06T10:58:22;23.80;65.00
30999;DHT22;20549;50.042;8.968;2023-08-06T11:00:49;23.50;66.30
30999;DHT22;20549;50.042;8.968;2023-08-06T11:03:15;23.20;67.70
30999;DHT22;20549;50.042;8.968;2023-08-06T11:05:48;23.00;69.00
30999;DHT22;20549;50.042;8.968;2023-08-06T11:08:08;22.90;70.70
30999;DHT22;20549;50.042;8.968;2023-08-06T11:10:35;22.80;72.50
30999;DHT22;20549;50.042;8.968;2023-08-06T11:13:02;22.90;74.10
30999;DHT22;20549;50.042;8.968;2023-08-06T11:15:28;23.00;75.80
30999;DHT22;20549;50.042;8.968;2023-08-06T11:17:55;23.20;77.40
30999;DHT22;20549;50.042;8.968;2023-08-06T11:20:22;23.40;79.10
30999;DHT22;20549;50.042;8.968;2023-08-06T11:22:51;23.60;81.10
30999;DHT22;20549;50.042;8.968;2023-08-06T11:25:19;23.90;80.20
30999;DHT22;20549;50.042;8.968;2023-08-06T11:27:44;24.10;80.10
30999;DHT22;20549;50.042;8.968;2023-08-06T11:30:10;24.30;81.50
30999;DHT22;20549;50.042;8.968;2023-08-06T11:32:49;24.60;81.30
30999;DHT22;20549;50.042;8.968;2023-08-06T11:35:12;24.80;80.10
30999;DHT22;20549;50.042;8.968;2023-08-06T11:37:39;25.00;79.20
30999;DHT22;20549;50.042;8.968;2023-08-06T11:40:08;25.20;78.80
30999;DHT22;20549;50.042;8.968;2023-08-06T11:42:32;25.20;77.20
30999;DHT22;20549;50.042;8.968;2023-08-06T11:44:59;25.20;76.10
30999;DHT22;20549;50.042;8.968;2023-08-06T11:47:25;25.20;75.30
30999;DHT22;20549;50.042;8.968;2023-08-06T11:49:52;25.20;75.70
30999;DHT22;20549;50.042;8.968;2023-08-06T11:52:22;25.30;76.80
30999;DHT22;20549;50.042;8.968;2023-08-06T11:55:04;25.30;77.20
30999;DHT22;20549;50.042;8.968;2023-08-06T11:57:30;25.40;76.70
30999;DHT22;20549;50.042;8.968;2023-08-06T12:00:06;25.50;75.00
30999;DHT22;20549;50.042;8.968;2023-08-06T12:02:32;25.50;73.40
30999;DHT22;20549;50.042;8.968;2023-08-06T12:05:04;25.40;72.40
30999;DHT22;20549;50.042;8.968;2023-08-06T12:07:36;25.30;72.50
30999;DHT22;20549;50.042;8.968;2023-08-06T12:10:00;25.20;71.70
30999;DHT22;20549;50.042;8.968;2023-08-06T12:12:27;25.00;71.30
30999;DHT22;20549;50.042;8.968;2023-08-06T12:14:54;24.80;71.20
30999;DHT22;20549;50.042;8.968;2023-08-06T12:17:20;24.50;71.50
30999;DHT22;20549;50.042;8.968;2023-08-06T12:19:46;24.20;71.80
30999;DHT22;20549;50.042;8.968;2023-08-06T12:22:13;23.90;72.00
30999;DHT22;20549;50.042;8.968;2023-08-06T12:24:43;23.60;72.80
30999;DHT22;20549;50.042;8.968;2023-08-06T12:27:09;23.30;73.10
30999;DHT22;20549;50.042;8.968;2023-08-06T12:29:36;23.00;74.10
30999;DHT22;20549;50.042;8.968;2023-08-06T12:32:02;22.80;75.30
30999;DHT22;20549;50.042;8.968;2023-08-06T12:34:35;22.60;76.70
30999;DHT22;20549;50.042;8.968;2023-08-06T12:37:02;22.40;77.80
30999;DHT22;20549;50.042;8.968;2023-08-06T12:39:28;22.30;79.10
30999;DHT22;20549;50.042;8.968;2023-08-06T12:41:55;22.20;78.90
30999;DHT22;20549;50.042;8.968;2023-08-06T12:44:21;22.00;80.40
30999;DHT22;20549;50.042;8.968;2023-08-06T12:46:48;21.90;80.80
30999;DHT22;20549;50.042;8.968;2023-08-06T12:49:14;21.70;81.50
30999;DHT22;20549;50.042;8.968;2023-08-06T12:51:41;21.60;81.70
30999;DHT22;20549;50.042;8.968;2023-08-06T12:54:07;21.50;83.00
30999;DHT22;20549;50.042;8.968;2023-08-06T12:56:34;21.40;83.70
30999;DHT22;20549;50.042;8.968;2023-08-06T12:59:01;21.30;83.70
30999;DHT22;20549;50.042;8.968;2023-08-06T13:01:27;21.20;83.90
30999;DHT22;20549;50.042;8.968;2023-08-06T13:03:54;21.10;84.30
30999;DHT22;20549;50.042;8.968;2023-08-06T13:06:20;21.00;85.10
30999;DHT22;20549;50.042;8.968;2023-08-06T13:08:47;20.90;86.40
30999;DHT22;20549;50.042;8.968;2023-08-06T13:11:14;20.80;87.20
30999;DHT22;20549;50.042;8.968;2023-08-06T13:13:40;20.70;88.20
30999;DHT22;20549;50.042;8.968;2023-08-06T13:16:07;20.60;89.00
30999;DHT22;20549;50.042;8.968;2023-08-06T13:18:33;20.60;89.10
30999;DHT22;20549;50.042;8.968;2023-08-06T13:21:00;20.50;90.20
30999;DHT22;20549;50.042;8.968;2023-08-06T13:23:27;20.50;90.50
30999;DHT22;20549;50.042;8.968;2023-08-06T13:25:53;20.50;91.00
30999;DHT22;20549;50.042;8.968;2023-08-06T13:28:20;20.50;91.30
30999;DHT22;20549;50.042;8.968;2023-08-06T13:30:46;20.60;91.70
30999;DHT22;20549;50.042;8.968;2023-08-06T13:33:13;20.60;91.90
30999;DHT22;20549;50.042;8.968;2023-08-06T13:35:39;20.60;91.40
30999;DHT22;20549;50.042;8.968;2023-08-06T13:38:06;20.70;90.90
30999;DHT22;20549;50.042;8.968;2023-08-06T13:40:33;20.70;90.40
30999;DHT22;20549;50.042;8.968;2023-08-06T13:42:59;20.60;90.00
30999;DHT22;20549;50.042;8.968;2023-08-06T13:45:26;20.60;89.90
30999;DHT22;20549;50.042;8.968;2023-08-06T13:47:53;20.50;89.60
30999;DHT22;20549;50.042;8.968;2023-08-06T13:50:19;20.40;89.80
30999;DHT22;20549;50.042;8.968;2023-08-06T13:52:46;20.40;90.10
30999;DHT22;20549;50.042;8.968;2023-08-06T13:55:12;20.30;90.30
30999;DHT22;20549;50.042;8.968;2023-08-06T13:57:39;20.20;90.40
30999;DHT22;20549;50.042;8.968;2023-08-06T14:00:06;20.10;90.60
30999;DHT22;20549;50.042;8.968;2023-08-06T14:02:32;20.00;90.80
30999;DHT22;20549;50.042;8.968;2023-08-06T14:04:59;19.90;91.20
30999;DHT22;20549;50.042;8.968;2023-08-06T14:07:25;19.80;91.60
30999;DHT22;20549;50.042;8.968;2023-08-06T14:09:52;19.70;91.30
30999;DHT22;20549;50.042;8.968;2023-08-06T14:12:19;19.70;91.60
30999;DHT22;20549;50.042;8.968;2023-08-06T14:14:45;19.50;91.90
30999;DHT22;20549;50.042;8.968;2023-08-06T14:17:12;19.50;92.50
30999;DHT22;20549;50.042;8.968;2023-08-06T14:19:38;19.40;93.00
30999;DHT22;20549;50.042;8.968;2023-08-06T14:22:05;19.30;93.60
30999;DHT22;20549;50.042;8.968;2023-08-06T14:24:31;19.30;93.80
30999;DHT22;20549;50.042;8.968;2023-08-06T14:26:58;19.20;94.30
30999;DHT22;20549;50.042;8.968;2023-08-06T14:29:25;19.20;94.60
30999;DHT22;20549;50.042;8.968;2023-08-06T14:31:51;19.20;94.90
30999;DHT22;20549;50.042;8.968;2023-08-06T14:34:18;19.20;95.00
30999;DHT22;20549;50.042;8.968;2023-08-06T14:36:44;19.20;95.20
30999;DHT22;20549;50.042;8.968;2023-08-06T14:39:11;19.20;95.40
30999;DHT22;20549;50.042;8.968;2023-08-06T14:41:38;19.20;95.60
30999;DHT22;20549;50.042;8.968;2023-08-06T14:44:04;19.20;95.80
30999;DHT22;20549;50.042;8.968;2023-08-06T14:46:31;19.20;96.00
30999;DHT22;20549;50.042;8.968;2023-08-06T14:48:57;19.20;96.10
30999;DHT22;20549;50.042;8.968;2023-08-06T14:51:24;19.10;96.20
30999;DHT22;20549;50.042;8.968;2023-08-06T14:53:51;19.10;96.30
30999;DHT22;20549;50.042;8.968;2023-08-06T14:56:17;19.10;96.40
30999;DHT22;20549;50.042;8.968;2023-08-06T14:58:44;19.10;96.40
30999;DHT22;20549;50.042;8.968;2023-08-06T15:01:10;19.10;96.60
30999;DHT22;20549;50.042;8.968;2023-08-06T15:03:37;19.10;96.80
30999;DHT22;20549;50.042;8.968;2023-08-06T15:06:04;19.10;96.80
30999;DHT22;20549;50.042;8.968;2023-08-06T15:11:05;19.10;96.80
30999;DHT22;20549;50.042;8.968;2023-08-06T15:13:32;19.10;97.40
30999;DHT22;20549;50.042;8.968;2023-08-06T15:15:58;19.10;97.20
30999;DHT22;20549;50.042;8.968;2023-08-06T15:18:25;19.10;96.90
30999;DHT22;20549;50.042;8.968;2023-08-06T15:20:51;19.10;96.70
30999;DHT22;20549;50.042;8.968;2023-08-06T15:23:18;19.10;96.80
30999;DHT22;20549;50.042;8.968;2023-08-06T15:25:45;19.10;96.60
30999;DHT22;20549;50.042;8.968;2023-08-06T15:28:11;19.00;96.70
30999;DHT22;20549;50.042;8.968;2023-08-06T15:30:38;19.00;96.80
30999;DHT22;20549;50.042;8.968;2023-08-06T15:33:04;19.00;96.70
30999;DHT22;20549;50.042;8.968;2023-08-06T15:35:31;19.00;96.70